createdAt,value
2022-10-02T00:00:58.319Z,17.20
2022-10-02T00:03:46.249Z,17.20
2022-10-02T00:06:48.118Z,17.20
2022-10-02T00:09:44.311Z,17.10
2022-10-02T00:12:31.654Z,17.20
2022-10-02T00:15:23.091Z,17.20
2022-10-02T00:18:20.232Z,17.30
2022-10-02T00:21:29.224Z,17.10
2022-10-02T00:24:27.281Z,16.60
2022-10-02T00:27:21.937Z,16.40
2022-10-02T00:30:12.232Z,16.10
2022-10-02T00:33:19.521Z,16.60
2022-10-02T00:36:17.089Z,16.90
2022-10-02T00:39:21.562Z,16.80
2022-10-02T00:42:25.241Z,17.10
2022-10-02T00:45:44.198Z,17.10
2022-10-02T00:48:48.465Z,17.10
2022-10-02T00:51:42.993Z,17.10
2022-10-02T00:55:07.411Z,17.10
2022-10-02T00:58:16.505Z,17.00
2022-10-02T01:01:29.647Z,17.00
2022-10-02T01:04:31.725Z,17.10
2022-10-02T01:07:17.716Z,16.80
2022-10-02T01:10:03.954Z,16.90
2022-10-02T01:12:54.907Z,17.00
2022-10-02T01:15:48.418Z,16.90
2022-10-02T01:18:34.367Z,16.60
2022-10-02T01:21:46.451Z,16.50
2022-10-02T01:24:46.543Z,16.40
2022-10-02T01:27:38.054Z,16.30
2022-10-02T01:30:24.950Z,16.30
2022-10-02T01:33:12.509Z,16.30
2022-10-02T01:35:58.339Z,16.50
2022-10-02T01:38:46.468Z,16.30
2022-10-02T01:41:38.511Z,15.70
2022-10-02T01:44:27.999Z,15.50
2022-10-02T01:47:19.756Z,16.10
2022-10-02T01:50:38.115Z,16.40
2022-10-02T01:53:31.433Z,16.60
2022-10-02T01:57:03.320Z,16.60
2022-10-02T01:59:54.736Z,16.60
2022-10-02T02:03:17.168Z,16.60
2022-10-02T02:06:20.680Z,16.50
2022-10-02T02:09:49.285Z,16.70
2022-10-02T02:12:45.832Z,16.70
2022-10-02T02:15:50.454Z,16.60
2022-10-02T02:18:46.449Z,16.40
2022-10-02T02:21:58.348Z,16.50
2022-10-02T02:25:14.009Z,16.40
2022-10-02T02:28:06.325Z,16.40
2022-10-02T02:30:55.206Z,16.40
2022-10-02T02:33:49.303Z,16.50
2022-10-02T02:36:44.993Z,16.50
2022-10-02T02:39:54.928Z,16.40
2022-10-02T02:42:53.356Z,16.00
2022-10-02T02:45:45.665Z,16.10
2022-10-02T02:48:38.272Z,16.20
2022-10-02T02:51:35.343Z,16.40
2022-10-02T02:54:28.862Z,16.50
2022-10-02T02:57:18.444Z,16.40
2022-10-02T03:00:06.502Z,16.20
2022-10-02T03:02:54.567Z,15.90
2022-10-02T03:05:46.821Z,15.90
2022-10-02T03:08:37.579Z,16.20
2022-10-02T03:11:44.580Z,15.90
2022-10-02T03:14:54.503Z,15.70
2022-10-02T03:18:00.066Z,15.70
2022-10-02T03:21:14.787Z,15.70
2022-10-02T03:24:15.409Z,15.80
2022-10-02T03:27:10.356Z,15.60
2022-10-02T03:30:02.520Z,15.60
2022-10-02T03:32:53.516Z,15.80
2022-10-02T03:35:40.546Z,16.00
2022-10-02T03:38:28.178Z,15.90
2022-10-02T03:41:14.289Z,15.90
2022-10-02T03:43:59.636Z,15.80
2022-10-02T03:46:45.200Z,15.60
2022-10-02T03:49:30.701Z,15.60
2022-10-02T03:52:18.875Z,15.40
2022-10-02T03:55:21.210Z,15.20
2022-10-02T03:58:14.614Z,15.40
2022-10-02T04:01:13.534Z,15.90
2022-10-02T04:04:10.171Z,15.70
2022-10-02T04:07:11.287Z,15.20
2022-10-02T04:10:29.474Z,15.30
2022-10-02T04:13:23.742Z,15.50
2022-10-02T04:16:32.595Z,15.60
2022-10-02T04:19:29.925Z,15.90
2022-10-02T04:22:24.723Z,15.40
2022-10-02T04:25:22.340Z,14.90
2022-10-02T04:28:17.551Z,15.20
2022-10-02T04:31:05.616Z,15.10
2022-10-02T04:33:51.766Z,14.70
2022-10-02T04:37:02.721Z,14.80
2022-10-02T04:40:29.542Z,14.70
2022-10-02T04:43:31.322Z,15.00
2022-10-02T04:46:25.904Z,15.30
2022-10-02T04:49:48.194Z,15.30
2022-10-02T04:52:52.706Z,15.40
2022-10-02T04:55:52.743Z,15.30
2022-10-02T04:58:56.311Z,15.40
2022-10-02T05:01:53.364Z,15.30
2022-10-02T05:05:02.487Z,15.20
2022-10-02T05:08:10.019Z,15.30
2022-10-02T05:11:07.686Z,15.60
2022-10-02T05:14:05.357Z,15.70
2022-10-02T05:17:03.632Z,15.60
2022-10-02T05:19:58.720Z,15.50
2022-10-02T05:23:07.270Z,15.60
2022-10-02T05:26:28.336Z,15.60
2022-10-02T05:29:42.781Z,15.50
2022-10-02T05:32:50.612Z,15.10
2022-10-02T05:36:04.764Z,15.40
2022-10-02T05:38:50.437Z,15.50
2022-10-02T05:41:41.929Z,15.60
2022-10-02T05:44:43.179Z,15.80
2022-10-02T05:47:39.360Z,16.00
2022-10-02T05:50:31.826Z,15.90
2022-10-02T05:53:26.174Z,15.80
2022-10-02T05:56:18.661Z,15.70
2022-10-02T05:59:32.946Z,16.20
2022-10-02T06:02:34.377Z,16.50
2022-10-02T06:05:29.283Z,16.50
2022-10-02T06:08:20.070Z,16.10
2022-10-02T06:11:21.388Z,16.20
2022-10-02T06:14:39.471Z,16.10
2022-10-02T06:17:31.242Z,16.60
2022-10-02T06:20:25.228Z,16.40
2022-10-02T06:23:20.357Z,16.40
2022-10-02T06:26:19.345Z,16.60
2022-10-02T06:29:14.848Z,16.60
2022-10-02T06:32:16.004Z,16.60
2022-10-02T06:35:06.665Z,17.20
2022-10-02T06:38:22.233Z,17.40
2022-10-02T06:41:08.625Z,17.60
2022-10-02T06:44:48.233Z,17.60
2022-10-02T06:47:49.127Z,17.70
2022-10-02T06:50:54.658Z,17.30
2022-10-02T06:54:05.871Z,17.40
2022-10-02T06:57:18.772Z,17.70
2022-10-02T07:00:05.870Z,17.90
2022-10-02T07:03:09.404Z,17.80
2022-10-02T07:06:10.312Z,17.90
2022-10-02T07:09:33.345Z,19.00
2022-10-02T07:12:37.917Z,19.10
2022-10-02T07:15:26.868Z,19.30
2022-10-02T07:18:25.892Z,19.50
2022-10-02T07:21:26.627Z,19.40
2022-10-02T07:24:39.753Z,18.30
2022-10-02T07:27:44.152Z,18.60
2022-10-02T07:31:07.228Z,19.50
2022-10-02T07:34:12.366Z,19.80
2022-10-02T07:37:11.958Z,20.00
2022-10-02T07:40:35.984Z,20.10
2022-10-02T07:43:45.059Z,19.90
2022-10-02T07:47:01.576Z,20.30
2022-10-02T07:49:53.374Z,21.00
2022-10-02T07:52:51.642Z,23.30
2022-10-02T07:55:44.199Z,25.40
2022-10-02T07:58:49.867Z,26.70
2022-10-02T08:01:39.356Z,27.70
2022-10-02T08:04:37.206Z,27.60
2022-10-02T08:07:23.388Z,27.40
2022-10-02T08:10:13.953Z,28.40
2022-10-02T08:13:28.890Z,29.10
2022-10-02T08:16:18.012Z,29.50
2022-10-02T08:19:11.813Z,29.10
2022-10-02T08:22:25.565Z,28.30
2022-10-02T08:25:25.145Z,27.70
2022-10-02T08:28:19.931Z,27.50
2022-10-02T08:31:14.367Z,27.10
2022-10-02T08:34:06.598Z,26.90
2022-10-02T08:37:17.256Z,27.40
2022-10-02T08:40:22.273Z,28.60
2022-10-02T08:43:10.604Z,29.40
2022-10-02T08:46:08.570Z,30.10
2022-10-02T08:49:31.787Z,30.70
2022-10-02T08:52:42.442Z,30.00
2022-10-02T08:56:17.743Z,28.60
2022-10-02T08:59:20.470Z,27.20
2022-10-02T09:02:29.183Z,26.60
2022-10-02T09:05:20.556Z,25.70
2022-10-02T09:08:18.075Z,25.10
2022-10-02T09:11:25.722Z,26.20
2022-10-02T09:14:26.400Z,27.70
2022-10-02T09:17:36.667Z,27.60
2022-10-02T09:20:41.183Z,29.00
2022-10-02T09:24:03.763Z,29.70
2022-10-02T09:27:16.783Z,28.80
2022-10-02T09:30:32.282Z,28.50
2022-10-02T09:33:42.110Z,28.80
2022-10-02T09:37:02.209Z,29.20
2022-10-02T09:40:08.859Z,30.10
2022-10-02T09:43:14.890Z,31.70
2022-10-02T09:46:22.578Z,29.80
2022-10-02T09:49:46.643Z,27.10
2022-10-02T09:52:39.245Z,30.10
2022-10-02T09:55:36.571Z,32.60
2022-10-02T09:58:36.697Z,35.20
2022-10-02T10:01:47.070Z,35.50
2022-10-02T10:05:04.518Z,34.80
2022-10-02T10:08:12.247Z,34.70
2022-10-02T10:11:07.928Z,32.40
2022-10-02T10:14:19.112Z,30.10
2022-10-02T10:17:22.060Z,29.70
2022-10-02T10:20:42.323Z,30.20
2022-10-02T10:23:46.872Z,30.40
2022-10-02T10:26:54.441Z,28.80
2022-10-02T10:30:22.414Z,30.50
2022-10-02T10:33:35.247Z,28.90
2022-10-02T10:37:06.840Z,26.40
2022-10-02T10:40:24.103Z,26.40
2022-10-02T10:43:24.096Z,25.90
2022-10-02T10:46:31.208Z,25.40
2022-10-02T10:50:02.726Z,24.00
2022-10-02T10:53:06.509Z,24.30
2022-10-02T10:56:35.800Z,24.20
2022-10-02T10:59:53.309Z,24.40
2022-10-02T11:02:45.333Z,24.40
2022-10-02T11:05:49.770Z,24.20
2022-10-02T11:08:58.555Z,23.10
2022-10-02T11:11:57.655Z,23.40
2022-10-02T11:15:02.033Z,22.70
2022-10-02T11:18:22.798Z,22.40
2022-10-02T11:21:28.917Z,22.80
2022-10-02T11:24:36.276Z,22.40
2022-10-02T11:27:30.532Z,22.90
2022-10-02T11:30:24.460Z,23.30
2022-10-02T11:33:25.688Z,23.70
2022-10-02T11:36:49.565Z,23.80
2022-10-02T11:40:01.455Z,24.00
2022-10-02T11:43:13.981Z,24.00
2022-10-02T11:46:21.930Z,23.90
2022-10-02T11:49:20.228Z,23.20
2022-10-02T11:52:11.599Z,23.30
2022-10-02T11:55:25.706Z,23.50
2022-10-02T11:58:51.063Z,23.10
2022-10-02T12:01:45.298Z,23.00
2022-10-02T12:04:49.691Z,23.00
2022-10-02T12:07:58.577Z,23.30
2022-10-02T12:10:57.516Z,23.50
2022-10-02T12:14:20.434Z,23.60
2022-10-02T12:17:16.552Z,23.60
2022-10-02T12:20:30.139Z,23.60
2022-10-02T12:23:56.055Z,23.90
2022-10-02T12:26:59.190Z,23.70
2022-10-02T12:29:56.761Z,23.50
2022-10-02T12:33:08.167Z,23.30
2022-10-02T12:36:09.227Z,23.20
2022-10-02T12:39:25.909Z,23.70
2022-10-02T12:42:36.392Z,23.90
2022-10-02T12:45:33.878Z,24.00
2022-10-02T12:48:28.732Z,23.30
2022-10-02T12:51:29.728Z,23.30
2022-10-02T12:54:50.694Z,23.60
2022-10-02T12:58:00.593Z,23.40
2022-10-02T13:00:49.593Z,23.20
2022-10-02T13:04:02.892Z,23.10
2022-10-02T13:07:07.257Z,23.20
2022-10-02T13:10:16.287Z,23.30
2022-10-02T13:13:08.110Z,23.60
2022-10-02T13:16:22.133Z,23.70
2022-10-02T13:19:37.839Z,23.80
2022-10-02T13:22:38.651Z,23.80
2022-10-02T13:25:39.724Z,23.50
2022-10-02T13:28:25.348Z,23.30
2022-10-02T13:31:14.007Z,23.30
2022-10-02T13:34:11.383Z,23.40
2022-10-02T13:37:17.385Z,23.60
2022-10-02T13:40:02.791Z,23.30
2022-10-02T13:43:40.906Z,23.40
2022-10-02T13:46:45.004Z,23.80
2022-10-02T13:49:51.675Z,23.90
2022-10-02T13:52:50.708Z,24.00
2022-10-02T13:55:47.008Z,23.80
2022-10-02T13:58:44.596Z,23.60
2022-10-02T14:01:45.796Z,23.80
2022-10-02T14:04:55.350Z,23.90
2022-10-02T14:08:06.019Z,23.80
2022-10-02T14:10:55.467Z,23.80
2022-10-02T14:14:18.449Z,23.80
2022-10-02T14:17:22.887Z,23.80
2022-10-02T14:20:30.183Z,23.90
2022-10-02T14:23:24.862Z,24.00
2022-10-02T14:26:31.793Z,24.20
2022-10-02T14:29:29.424Z,24.10
2022-10-02T14:32:15.231Z,23.90
2022-10-02T14:35:34.664Z,24.20
2022-10-02T14:38:49.822Z,24.10
2022-10-02T14:42:05.661Z,24.10
2022-10-02T14:45:34.749Z,23.90
2022-10-02T14:48:56.360Z,24.10
2022-10-02T14:52:03.653Z,24.30
2022-10-02T14:55:27.166Z,24.40
2022-10-02T14:58:34.789Z,24.20
2022-10-02T15:01:26.527Z,24.20
2022-10-02T15:04:22.535Z,23.80
2022-10-02T15:07:13.868Z,24.00
2022-10-02T15:10:22.789Z,24.10
2022-10-02T15:13:30.703Z,24.30
2022-10-02T15:16:51.720Z,24.30
2022-10-02T15:19:49.086Z,24.50
2022-10-02T15:22:46.754Z,23.90
2022-10-02T15:25:53.576Z,24.10
2022-10-02T15:28:57.758Z,24.40
2022-10-02T15:32:08.542Z,24.40
2022-10-02T15:35:15.643Z,23.80
2022-10-02T15:38:41.838Z,23.70
2022-10-02T15:42:00.282Z,24.00
2022-10-02T15:45:04.273Z,24.10
2022-10-02T15:48:05.465Z,23.90
2022-10-02T15:51:15.234Z,23.60
2022-10-02T15:54:26.877Z,23.60
2022-10-02T15:57:44.809Z,23.70
2022-10-02T16:00:55.649Z,23.60
2022-10-02T16:03:50.896Z,23.90
2022-10-02T16:06:53.788Z,24.20
2022-10-02T16:10:13.412Z,23.80
2022-10-02T16:13:08.691Z,24.00
2022-10-02T16:16:32.620Z,23.80
2022-10-02T16:19:37.248Z,23.80
2022-10-02T16:22:36.599Z,23.60
2022-10-02T16:25:41.224Z,23.70
2022-10-02T16:28:55.329Z,23.70
2022-10-02T16:32:19.860Z,23.40
2022-10-02T16:35:16.578Z,23.70
2022-10-02T16:38:47.340Z,23.70
2022-10-02T16:41:41.430Z,23.40
2022-10-02T16:44:39.459Z,23.30
2022-10-02T16:47:27.708Z,23.10
2022-10-02T16:50:22.256Z,23.10
2022-10-02T16:53:23.857Z,23.00
2022-10-02T16:56:32.701Z,23.00
2022-10-02T16:59:27.756Z,23.00
2022-10-02T17:02:26.059Z,22.90
2022-10-02T17:05:32.204Z,23.00
2022-10-02T17:08:54.835Z,23.00
2022-10-02T17:11:52.335Z,23.20
2022-10-02T17:14:55.002Z,23.40
2022-10-02T17:18:09.612Z,23.50
2022-10-02T17:21:00.005Z,23.40
2022-10-02T17:24:17.131Z,23.40
2022-10-02T17:27:36.544Z,23.40
2022-10-02T17:30:28.940Z,23.30
2022-10-02T17:33:15.888Z,23.20
2022-10-02T17:36:06.255Z,23.20
2022-10-02T17:39:09.590Z,23.00
2022-10-02T17:42:28.396Z,23.10
2022-10-02T17:45:32.656Z,23.00
2022-10-02T17:48:21.319Z,22.70
2022-10-02T17:55:13.198Z,22.40
2022-10-02T17:58:08.078Z,22.30
2022-10-02T18:01:12.531Z,22.30
2022-10-02T18:04:10.139Z,22.20
2022-10-02T18:07:23.003Z,22.20
2022-10-02T18:10:53.503Z,22.20
2022-10-02T18:13:59.563Z,22.10
2022-10-02T18:17:06.374Z,22.00
2022-10-02T18:20:27.569Z,21.90
2022-10-02T18:24:05.031Z,21.90
2022-10-02T18:27:18.473Z,21.70
2022-10-02T18:30:15.747Z,21.60
2022-10-02T18:33:14.428Z,21.50
2022-10-02T18:36:12.814Z,21.50
2022-10-02T18:39:11.817Z,21.40
2022-10-02T18:42:28.259Z,21.50
2022-10-02T18:45:32.752Z,21.50
2022-10-02T18:48:30.845Z,21.50
2022-10-02T18:51:16.598Z,21.50
2022-10-02T18:54:02.113Z,21.20
2022-10-02T18:56:53.748Z,21.00
2022-10-02T19:00:04.672Z,21.00
2022-10-02T19:03:18.925Z,20.90
2022-10-02T19:06:23.403Z,20.70
2022-10-02T19:09:09.003Z,21.00
2022-10-02T19:11:57.639Z,20.90
2022-10-02T19:14:48.438Z,20.90
2022-10-02T19:17:36.177Z,21.00
2022-10-02T19:20:36.161Z,21.00
2022-10-02T19:23:46.899Z,20.60
2022-10-02T19:26:40.668Z,20.20
2022-10-02T19:29:54.406Z,20.20
2022-10-02T19:32:41.714Z,20.30
2022-10-02T19:35:43.204Z,20.30
2022-10-02T19:38:41.859Z,20.20
2022-10-02T19:41:29.898Z,20.10
2022-10-02T19:44:38.632Z,20.20
2022-10-02T19:47:27.140Z,20.20
2022-10-02T19:50:28.697Z,20.20
2022-10-02T19:53:23.686Z,20.30
2022-10-02T19:56:24.254Z,20.20
2022-10-02T19:59:20.610Z,20.10
2022-10-02T20:02:34.934Z,20.10
2022-10-02T20:05:27.200Z,20.10
2022-10-02T20:08:21.096Z,20.10
2022-10-02T20:11:19.930Z,20.10
2022-10-02T20:14:13.381Z,20.10
2022-10-02T20:17:10.931Z,20.10
2022-10-02T20:19:59.348Z,19.80
2022-10-02T20:22:54.599Z,19.60
2022-10-02T20:25:46.274Z,18.30
2022-10-02T20:28:46.988Z,19.70
2022-10-02T20:31:50.180Z,19.90
2022-10-02T20:34:39.172Z,19.90
2022-10-02T20:37:29.800Z,20.00
2022-10-02T20:40:36.593Z,19.90
2022-10-02T20:43:46.275Z,19.80
2022-10-02T20:47:08.984Z,19.80
2022-10-02T20:50:22.897Z,19.80
2022-10-02T20:53:33.527Z,20.00
2022-10-02T20:56:28.907Z,19.90
2022-10-02T20:59:52.175Z,19.70
2022-10-02T21:02:56.601Z,19.60
2022-10-02T21:06:08.880Z,19.60
2022-10-02T21:09:00.520Z,19.60
2022-10-02T21:11:46.271Z,19.70
2022-10-02T21:14:53.661Z,19.60
2022-10-02T21:17:54.579Z,19.60
2022-10-02T21:21:14.586Z,19.60
2022-10-02T21:24:24.220Z,19.70
2022-10-02T21:27:21.926Z,19.60
2022-10-02T21:30:18.246Z,19.70
2022-10-02T21:33:15.308Z,19.70
2022-10-02T21:36:08.777Z,19.60
2022-10-02T21:39:09.344Z,19.40
2022-10-02T21:42:27.652Z,19.20
2022-10-02T21:45:34.298Z,19.10
2022-10-02T21:48:45.009Z,19.00
2022-10-02T21:51:42.491Z,19.10
2022-10-02T21:54:46.685Z,19.10
2022-10-02T21:57:57.500Z,19.30
2022-10-02T22:01:05.327Z,19.30
2022-10-02T22:04:18.811Z,19.30
2022-10-02T22:07:29.905Z,19.20
2022-10-02T22:10:33.757Z,19.10
2022-10-02T22:13:33.435Z,19.00
2022-10-02T22:16:47.453Z,18.70
2022-10-02T22:19:33.216Z,20.40
2022-10-02T22:22:29.943Z,19.00
2022-10-02T22:25:31.387Z,18.50
2022-10-02T22:28:59.804Z,18.60
2022-10-02T22:32:39.859Z,18.30
2022-10-02T22:35:54.919Z,18.50
2022-10-02T22:38:59.752Z,18.80
2022-10-02T22:42:20.130Z,18.70
2022-10-02T22:45:14.702Z,18.90
2022-10-02T22:48:13.243Z,18.60
2022-10-02T22:51:25.349Z,18.10
2022-10-02T22:54:19.791Z,18.10
2022-10-02T22:57:14.572Z,18.50
2022-10-02T23:00:12.256Z,18.50
2022-10-02T23:03:25.671Z,18.50
2022-10-02T23:06:33.111Z,18.70
2022-10-02T23:09:24.379Z,17.90
2022-10-02T23:12:17.994Z,17.70
2022-10-02T23:15:28.356Z,17.90
2022-10-02T23:18:36.282Z,18.50
2022-10-02T23:21:47.151Z,18.10
2022-10-02T23:24:40.015Z,18.00
2022-10-02T23:27:59.386Z,18.10
2022-10-02T23:30:50.959Z,17.70
2022-10-02T23:33:46.848Z,17.60
2022-10-02T23:36:44.318Z,17.60
2022-10-02T23:39:42.318Z,17.60
2022-10-02T23:42:54.580Z,17.90
2022-10-02T23:45:48.015Z,18.30
2022-10-02T23:48:34.050Z,18.30
2022-10-02T23:51:51.288Z,18.30
2022-10-02T23:55:02.922Z,18.00
2022-10-02T23:58:17.622Z,18.40
